sensor_id;sensor_type;location;lat;lon;timestamp;pressure;altitude;pressure_sealevel;temperature;humidity
48041;BME280;33815;48.386;11.738;2023-02-19T00:02:09;96931.88;;;9.40;89.80
48041;BME280;33815;48.386;11.738;2023-02-19T00:04:34;96938.75;;;9.51;89.29
48041;BME280;33815;48.386;11.738;2023-02-19T00:06:59;96943.81;;;9.53;89.53
48041;BME280;33815;48.386;11.738;2023-02-19T00:09:24;96934.19;;;9.43;89.09
48041;BME280;33815;48.386;11.738;2023-02-19T00:11:50;96942.28;;;9.50;88.68
48041;BME280;33815;48.386;11.738;2023-02-19T00:14:18;96938.03;;;9.49;88.74
48041;BME280;33815;48.386;11.738;2023-02-19T00:16:44;96935.56;;;9.48;89.15
48041;BME280;33815;48.386;11.738;2023-02-19T00:19:15;96931.59;;;9.43;89.22
48041;BME280;33815;48.386;11.738;2023-02-19T00:21:41;96938.16;;;9.48;89.09
48041;BME280;33815;48.386;11.738;2023-02-19T00:24:07;96921.91;;;9.55;88.72
48041;BME280;33815;48.386;11.738;2023-02-19T00:26:33;96924.72;;;9.42;88.81
48041;BME280;33815;48.386;11.738;2023-02-19T00:28:59;96919.44;;;9.44;89.13
48041;BME280;33815;48.386;11.738;2023-02-19T00:31:27;96917.91;;;9.41;89.12
48041;BME280;33815;48.386;11.738;2023-02-19T00:33:56;96905.25;;;9.27;89.52
48041;BME280;33815;48.386;11.738;2023-02-19T00:36:22;96914.22;;;9.34;89.55
48041;BME280;33815;48.386;11.738;2023-02-19T00:38:48;96911.34;;;9.47;89.22
48041;BME280;33815;48.386;11.738;2023-02-19T00:41:14;96893.75;;;9.20;90.08
48041;BME280;33815;48.386;11.738;2023-02-19T00:43:56;96915.81;;;9.35;90.19
48041;BME280;33815;48.386;11.738;2023-02-19T00:48:51;96899.53;;;9.33;90.23
48041;BME280;33815;48.386;11.738;2023-02-19T00:51:18;96906.66;;;9.31;90.71
48041;BME280;33815;48.386;11.738;2023-02-19T00:53:44;96895.41;;;9.21;90.79
48041;BME280;33815;48.386;11.738;2023-02-19T00:56:09;96891.75;;;9.33;90.56
48041;BME280;33815;48.386;11.738;2023-02-19T00:58:35;96893.50;;;9.23;91.04
48041;BME280;33815;48.386;11.738;2023-02-19T01:01:00;96889.53;;;9.19;91.21
48041;BME280;33815;48.386;11.738;2023-02-19T01:03:26;96889.66;;;9.27;91.04
48041;BME280;33815;48.386;11.738;2023-02-19T01:05:51;96878.69;;;9.14;91.52
48041;BME280;33815;48.386;11.738;2023-02-19T01:08:17;96903.50;;;9.28;91.26
48041;BME280;33815;48.386;11.738;2023-02-19T01:10:43;96871.56;;;9.16;91.63
48041;BME280;33815;48.386;11.738;2023-02-19T01:13:08;96879.53;;;9.24;91.65
48041;BME280;33815;48.386;11.738;2023-02-19T01:15:34;96878.16;;;9.30;91.48
48041;BME280;33815;48.386;11.738;2023-02-19T01:18:00;96879.53;;;9.24;91.29
48041;BME280;33815;48.386;11.738;2023-02-19T01:20:25;96885.84;;;9.31;91.41
48041;BME280;33815;48.386;11.738;2023-02-19T01:22:51;96867.06;;;9.18;91.99
48041;BME280;33815;48.386;11.738;2023-02-19T01:25:16;96880.13;;;9.37;91.29
48041;BME280;33815;48.386;11.738;2023-02-19T01:27:41;96878.31;;;9.28;91.70
48041;BME280;33815;48.386;11.738;2023-02-19T01:30:07;96874.63;;;9.31;91.86
48041;BME280;33815;48.386;11.738;2023-02-19T01:32:33;96883.22;;;9.31;91.88
48041;BME280;33815;48.386;11.738;2023-02-19T01:34:58;96863.78;;;9.16;92.58
48041;BME280;33815;48.386;11.738;2023-02-19T01:37:23;96868.84;;;9.17;92.67
48041;BME280;33815;48.386;11.738;2023-02-19T01:39:49;96864.19;;;9.21;92.74
48041;BME280;33815;48.386;11.738;2023-02-19T01:42:15;96863.78;;;9.25;92.70
48041;BME280;33815;48.386;11.738;2023-02-19T01:47:09;96851.75;;;9.15;93.05
48041;BME280;33815;48.386;11.738;2023-02-19T01:49:39;96845.56;;;9.06;93.58
48041;BME280;33815;48.386;11.738;2023-02-19T01:52:20;96853.22;;;9.17;92.86
48041;BME280;33815;48.386;11.738;2023-02-19T01:54:47;96823.94;;;8.96;93.40
48041;BME280;33815;48.386;11.738;2023-02-19T01:57:25;96845.31;;;9.19;93.11
48041;BME280;33815;48.386;11.738;2023-02-19T01:59:57;96832.03;;;9.02;93.69
48041;BME280;33815;48.386;11.738;2023-02-19T02:02:25;96836.53;;;9.20;93.43
48041;BME280;33815;48.386;11.738;2023-02-19T02:04:53;96834.63;;;9.12;93.58
48041;BME280;33815;48.386;11.738;2023-02-19T02:07:19;96814.34;;;8.96;94.00
48041;BME280;33815;48.386;11.738;2023-02-19T02:10:03;96815.03;;;8.98;94.31
48041;BME280;33815;48.386;11.738;2023-02-19T02:12:51;96823.66;;;8.99;94.65
48041;BME280;33815;48.386;11.738;2023-02-19T02:15:17;96809.84;;;8.98;94.23
48041;BME280;33815;48.386;11.738;2023-02-19T02:17:56;96827.63;;;9.03;95.30
48041;BME280;33815;48.386;11.738;2023-02-19T02:29:20;96817.06;;;8.95;95.95
48041;BME280;33815;48.386;11.738;2023-02-19T02:31:55;96816.41;;;8.93;95.78
48041;BME280;33815;48.386;11.738;2023-02-19T02:34:28;96812.44;;;8.98;95.21
48041;BME280;33815;48.386;11.738;2023-02-19T02:36:56;96812.88;;;9.03;94.93
48041;BME280;33815;48.386;11.738;2023-02-19T02:39:25;96807.09;;;9.00;94.89
48041;BME280;33815;48.386;11.738;2023-02-19T02:41:56;96785.63;;;8.88;95.33
48041;BME280;33815;48.386;11.738;2023-02-19T02:44:41;96801.91;;;9.09;94.69
48041;BME280;33815;48.386;11.738;2023-02-19T02:47:28;96798.09;;;9.04;94.67
48041;BME280;33815;48.386;11.738;2023-02-19T02:50:07;96790.16;;;9.05;94.33
48041;BME280;33815;48.386;11.738;2023-02-19T02:52:35;96781.25;;;8.98;94.49
48041;BME280;33815;48.386;11.738;2023-02-19T02:55:22;96779.88;;;8.94;94.61
48041;BME280;33815;48.386;11.738;2023-02-19T02:57:48;96772.75;;;8.96;94.54
48041;BME280;33815;48.386;11.738;2023-02-19T03:00:13;96774.97;;;9.11;93.86
48041;BME280;33815;48.386;11.738;2023-02-19T03:02:41;96772.75;;;9.06;94.61
48041;BME280;33815;48.386;11.738;2023-02-19T03:05:22;96745.53;;;9.00;95.31
48041;BME280;33815;48.386;11.738;2023-02-19T03:08:19;96748.41;;;8.97;95.38
48041;BME280;33815;48.386;11.738;2023-02-19T03:10:53;96765.50;;;9.00;96.09
48041;BME280;33815;48.386;11.738;2023-02-19T03:13:34;96766.47;;;8.99;96.61
48041;BME280;33815;48.386;11.738;2023-02-19T03:16:26;96772.34;;;8.91;96.79
48041;BME280;33815;48.386;11.738;2023-02-19T03:19:14;96744.41;;;8.83;96.78
48041;BME280;33815;48.386;11.738;2023-02-19T03:21:45;96751.84;;;8.88;97.14
48041;BME280;33815;48.386;11.738;2023-02-19T03:24:13;96736.63;;;8.83;96.19
48041;BME280;33815;48.386;11.738;2023-02-19T03:27:00;96729.25;;;8.88;96.02
48041;BME280;33815;48.386;11.738;2023-02-19T03:29:29;96753.19;;;8.92;96.51
48041;BME280;33815;48.386;11.738;2023-02-19T03:31:59;96746.06;;;8.84;96.64
48041;BME280;33815;48.386;11.738;2023-02-19T03:34:29;96748.53;;;8.96;96.61
48041;BME280;33815;48.386;11.738;2023-02-19T03:37:14;96748.81;;;8.83;98.48
48041;BME280;33815;48.386;11.738;2023-02-19T03:39:40;96739.22;;;8.73;99.46
48041;BME280;33815;48.386;11.738;2023-02-19T03:42:37;96749.88;;;8.70;99.81
48041;BME280;33815;48.386;11.738;2023-02-19T03:45:24;96724.81;;;8.60;100.00
48041;BME280;33815;48.386;11.738;2023-02-19T03:50:46;96720.31;;;8.62;100.00
48041;BME280;33815;48.386;11.738;2023-02-19T03:54:10;96731.53;;;8.62;100.00
48041;BME280;33815;48.386;11.738;2023-02-19T03:56:31;96754.34;;;8.49;100.00
48041;BME280;33815;48.386;11.738;2023-02-19T03:59:08;96759.72;;;8.57;100.00
48041;BME280;33815;48.386;11.738;2023-02-19T04:01:53;96748.31;;;8.48;100.00
48041;BME280;33815;48.386;11.738;2023-02-19T04:04:25;96747.81;;;8.54;100.00
48041;BME280;33815;48.386;11.738;2023-02-19T04:06:54;96728.50;;;8.47;100.00
48041;BME280;33815;48.386;11.738;2023-02-19T04:09:21;96736.41;;;8.46;100.00
48041;BME280;33815;48.386;11.738;2023-02-19T04:11:49;96746.56;;;8.49;100.00
48041;BME280;33815;48.386;11.738;2023-02-19T04:14:19;96725.84;;;8.37;100.00
48041;BME280;33815;48.386;11.738;2023-02-19T04:16:50;96751.41;;;8.32;100.00
48041;BME280;33815;48.386;11.738;2023-02-19T04:19:19;96752.09;;;8.44;100.00
48041;BME280;33815;48.386;11.738;2023-02-19T04:21:45;96747.44;;;8.38;100.00
48041;BME280;33815;48.386;11.738;2023-02-19T04:24:13;96748.00;;;8.41;100.00
48041;BME280;33815;48.386;11.738;2023-02-19T04:26:41;96732.41;;;8.32;100.00
48041;BME280;33815;48.386;11.738;2023-02-19T04:29:07;96724.19;;;8.27;100.00
48041;BME280;33815;48.386;11.738;2023-02-19T04:31:34;96737.88;;;8.38;100.00
48041;BME280;33815;48.386;11.738;2023-02-19T04:34:01;96748.38;;;8.27;100.00
48041;BME280;33815;48.386;11.738;2023-02-19T04:36:26;96762.72;;;8.31;100.00
48041;BME280;33815;48.386;11.738;2023-02-19T04:38:51;96758.25;;;8.33;100.00
48041;BME280;33815;48.386;11.738;2023-02-19T04:41:17;96762.47;;;8.34;100.00
48041;BME280;33815;48.386;11.738;2023-02-19T04:43:42;96763.00;;;8.28;100.00
48041;BME280;33815;48.386;11.738;2023-02-19T04:46:07;96754.88;;;8.12;100.00
48041;BME280;33815;48.386;11.738;2023-02-19T04:48:32;96754.56;;;8.05;100.00
48041;BME280;33815;48.386;11.738;2023-02-19T04:50:58;96762.75;;;8.00;100.00
48041;BME280;33815;48.386;11.738;2023-02-19T04:53:23;96773.94;;;8.01;100.00
48041;BME280;33815;48.386;11.738;2023-02-19T04:55:48;96777.25;;;8.03;100.00
48041;BME280;33815;48.386;11.738;2023-02-19T04:58:17;96760.50;;;7.86;100.00
48041;BME280;33815;48.386;11.738;2023-02-19T05:00:42;96765.34;;;8.00;100.00
48041;BME280;33815;48.386;11.738;2023-02-19T05:03:07;96751.91;;;7.95;100.00
48041;BME280;33815;48.386;11.738;2023-02-19T05:05:33;96762.88;;;7.99;100.00
48041;BME280;33815;48.386;11.738;2023-02-19T05:07:59;96771.91;;;8.04;100.00
48041;BME280;33815;48.386;11.738;2023-02-19T05:10:24;96768.78;;;8.11;100.00
48041;BME280;33815;48.386;11.738;2023-02-19T05:12:49;96768.88;;;7.99;100.00
48041;BME280;33815;48.386;11.738;2023-02-19T05:15:14;96771.59;;;7.98;100.00
48041;BME280;33815;48.386;11.738;2023-02-19T05:17:40;96763.94;;;7.96;100.00
48041;BME280;33815;48.386;11.738;2023-02-19T05:20:05;96775.19;;;7.97;100.00
48041;BME280;33815;48.386;11.738;2023-02-19T05:22:31;96780.38;;;7.97;100.00
48041;BME280;33815;48.386;11.738;2023-02-19T05:24:56;96785.56;;;7.97;100.00
48041;BME280;33815;48.386;11.738;2023-02-19T05:27:21;96796.75;;;7.97;100.00
48041;BME280;33815;48.386;11.738;2023-02-19T05:29:46;96797.00;;;7.94;100.00
48041;BME280;33815;48.386;11.738;2023-02-19T05:32:12;96795.94;;;7.97;100.00
48041;BME280;33815;48.386;11.738;2023-02-19T05:34:37;96794.28;;;7.96;100.00
48041;BME280;33815;48.386;11.738;2023-02-19T05:37:02;96798.84;;;7.82;100.00
48041;BME280;33815;48.386;11.738;2023-02-19T05:39:27;96777.75;;;7.76;100.00
48041;BME280;33815;48.386;11.738;2023-02-19T05:41:53;96790.72;;;7.76;100.00
48041;BME280;33815;48.386;11.738;2023-02-19T05:44:18;96813.34;;;7.85;100.00
48041;BME280;33815;48.386;11.738;2023-02-19T05:46:43;96777.22;;;7.72;100.00
48041;BME280;33815;48.386;11.738;2023-02-19T05:49:08;96806.50;;;7.84;100.00
48041;BME280;33815;48.386;11.738;2023-02-19T05:51:34;96804.47;;;7.87;100.00
48041;BME280;33815;48.386;11.738;2023-02-19T05:53:59;96799.16;;;7.89;100.00
48041;BME280;33815;48.386;11.738;2023-02-19T05:58:49;96776.94;;;7.75;100.00
48041;BME280;33815;48.386;11.738;2023-02-19T06:01:16;96809.88;;;7.75;100.00
48041;BME280;33815;48.386;11.738;2023-02-19T06:03:42;96803.59;;;7.77;100.00
48041;BME280;33815;48.386;11.738;2023-02-19T06:06:12;96811.75;;;7.72;100.00
48041;BME280;33815;48.386;11.738;2023-02-19T06:08:37;96797.56;;;7.55;100.00
48041;BME280;33815;48.386;11.738;2023-02-19T06:11:02;96790.13;;;7.62;100.00
48041;BME280;33815;48.386;11.738;2023-02-19T06:13:28;96795.75;;;7.67;100.00
48041;BME280;33815;48.386;11.738;2023-02-19T06:15:53;96811.06;;;7.70;100.00
48041;BME280;33815;48.386;11.738;2023-02-19T06:18:18;96809.94;;;7.63;100.00
48041;BME280;33815;48.386;11.738;2023-02-19T06:20:43;96820.59;;;7.70;100.00
48041;BME280;33815;48.386;11.738;2023-02-19T06:23:09;96813.47;;;7.62;100.00
48041;BME280;33815;48.386;11.738;2023-02-19T06:25:34;96832.09;;;7.67;100.00
48041;BME280;33815;48.386;11.738;2023-02-19T06:27:59;96833.34;;;7.73;100.00
48041;BME280;33815;48.386;11.738;2023-02-19T06:30:24;96811.69;;;7.63;100.00
48041;BME280;33815;48.386;11.738;2023-02-19T06:32:51;96827.03;;;7.66;100.00
48041;BME280;33815;48.386;11.738;2023-02-19T06:35:18;96829.63;;;7.66;100.00
48041;BME280;33815;48.386;11.738;2023-02-19T06:37:45;96842.41;;;7.79;100.00
48041;BME280;33815;48.386;11.738;2023-02-19T06:40:10;96840.81;;;7.87;100.00
48041;BME280;33815;48.386;11.738;2023-02-19T06:42:36;96851.81;;;7.80;100.00
48041;BME280;33815;48.386;11.738;2023-02-19T06:45:01;96862.97;;;7.92;100.00
48041;BME280;33815;48.386;11.738;2023-02-19T06:47:30;96857.06;;;7.68;100.00
48041;BME280;33815;48.386;11.738;2023-02-19T06:49:55;96847.88;;;7.64;100.00
48041;BME280;33815;48.386;11.738;2023-02-19T06:52:20;96854.38;;;7.59;100.00
48041;BME280;33815;48.386;11.738;2023-02-19T06:54:46;96873.19;;;7.51;100.00
48041;BME280;33815;48.386;11.738;2023-02-19T06:57:11;96856.78;;;7.50;100.00
48041;BME280;33815;48.386;11.738;2023-02-19T06:59:36;96859.56;;;7.59;100.00
48041;BME280;33815;48.386;11.738;2023-02-19T07:02:01;96878.06;;;7.65;100.00
48041;BME280;33815;48.386;11.738;2023-02-19T07:04:26;96861.41;;;7.47;100.00
48041;BME280;33815;48.386;11.738;2023-02-19T07:06:52;96869.88;;;7.49;100.00
48041;BME280;33815;48.386;11.738;2023-02-19T07:09:17;96878.56;;;7.59;100.00
48041;BME280;33815;48.386;11.738;2023-02-19T07:11:42;96877.44;;;7.52;100.00
48041;BME280;33815;48.386;11.738;2023-02-19T07:14:13;96880.97;;;7.51;100.00
48041;BME280;33815;48.386;11.738;2023-02-19T07:16:39;96915.69;;;7.60;100.00
48041;BME280;33815;48.386;11.738;2023-02-19T07:19:04;96905.69;;;7.55;100.00
48041;BME280;33815;48.386;11.738;2023-02-19T07:21:30;96912.28;;;7.59;100.00
48041;BME280;33815;48.386;11.738;2023-02-19T07:23:56;96917.22;;;7.62;100.00
48041;BME280;33815;48.386;11.738;2023-02-19T07:26:22;96915.69;;;7.60;100.00
48041;BME280;33815;48.386;11.738;2023-02-19T07:28:49;96923.34;;;7.61;100.00
48041;BME280;33815;48.386;11.738;2023-02-19T07:31:16;96931.34;;;7.69;100.00
48041;BME280;33815;48.386;11.738;2023-02-19T07:33:42;96932.53;;;7.65;100.00
48041;BME280;33815;48.386;11.738;2023-02-19T07:36:08;96941.72;;;7.69;100.00
48041;BME280;33815;48.386;11.738;2023-02-19T07:38:34;96960.75;;;7.59;100.00
48041;BME280;33815;48.386;11.738;2023-02-19T07:41:01;96952.06;;;7.48;100.00
48041;BME280;33815;48.386;11.738;2023-02-19T07:43:30;96955.44;;;7.60;100.00
48041;BME280;33815;48.386;11.738;2023-02-19T07:45:55;96964.19;;;7.59;100.00
48041;BME280;33815;48.386;11.738;2023-02-19T07:48:21;96966.56;;;7.51;100.00
48041;BME280;33815;48.386;11.738;2023-02-19T07:50:54;96972.00;;;7.36;100.00
48041;BME280;33815;48.386;11.738;2023-02-19T07:53:20;96986.28;;;7.31;100.00
48041;BME280;33815;48.386;11.738;2023-02-19T07:55:47;96979.91;;;7.24;100.00
48041;BME280;33815;48.386;11.738;2023-02-19T07:58:12;97005.72;;;7.25;100.00
48041;BME280;33815;48.386;11.738;2023-02-19T08:00:38;96987.13;;;7.09;100.00
48041;BME280;33815;48.386;11.738;2023-02-19T08:03:03;96997.47;;;7.09;100.00
48041;BME280;33815;48.386;11.738;2023-02-19T08:05:31;97005.13;;;7.10;100.00
48041;BME280;33815;48.386;11.738;2023-02-19T08:07:57;97004.06;;;6.90;100.00
48041;BME280;33815;48.386;11.738;2023-02-19T08:10:24;97015.38;;;6.89;100.00
48041;BME280;33815;48.386;11.738;2023-02-19T08:13:10;97008.16;;;6.81;100.00
48041;BME280;33815;48.386;11.738;2023-02-19T08:15:48;97001.56;;;6.66;100.00
48041;BME280;33815;48.386;11.738;2023-02-19T08:18:15;97009.81;;;6.71;100.00
48041;BME280;33815;48.386;11.738;2023-02-19T08:20:41;97004.53;;;6.84;100.00
48041;BME280;33815;48.386;11.738;2023-02-19T08:23:08;97011.25;;;6.75;100.00
48041;BME280;33815;48.386;11.738;2023-02-19T08:25:34;97025.34;;;6.71;100.00
48041;BME280;33815;48.386;11.738;2023-02-19T08:27:59;97017.69;;;6.69;100.00
48041;BME280;33815;48.386;11.738;2023-02-19T08:30:26;97010.63;;;6.72;100.00
48041;BME280;33815;48.386;11.738;2023-02-19T08:32:52;97002.53;;;6.88;100.00
48041;BME280;33815;48.386;11.738;2023-02-19T08:35:17;96996.63;;;6.74;100.00
48041;BME280;33815;48.386;11.738;2023-02-19T08:37:42;97004.41;;;6.74;100.00
48041;BME280;33815;48.386;11.738;2023-02-19T08:40:08;97015.59;;;6.75;100.00
48041;BME280;33815;48.386;11.738;2023-02-19T08:42:33;97024.44;;;6.83;100.00
48041;BME280;33815;48.386;11.738;2023-02-19T08:44:59;97023.84;;;6.80;100.00
48041;BME280;33815;48.386;11.738;2023-02-19T08:47:24;97021.47;;;6.77;100.00
48041;BME280;33815;48.386;11.738;2023-02-19T08:49:49;97024.31;;;6.74;100.00
48041;BME280;33815;48.386;11.738;2023-02-19T08:52:15;97038.19;;;6.73;100.00
48041;BME280;33815;48.386;11.738;2023-02-19T08:54:40;97034.63;;;6.51;100.00
48041;BME280;33815;48.386;11.738;2023-02-19T08:57:05;97033.31;;;6.45;100.00
48041;BME280;33815;48.386;11.738;2023-02-19T08:59:31;97030.88;;;6.55;100.00
48041;BME280;33815;48.386;11.738;2023-02-19T09:01:59;97034.66;;;6.62;100.00
48041;BME280;33815;48.386;11.738;2023-02-19T09:04:25;97052.81;;;6.74;100.00
48041;BME280;33815;48.386;11.738;2023-02-19T09:06:51;97070.03;;;6.50;100.00
48041;BME280;33815;48.386;11.738;2023-02-19T09:09:16;97050.13;;;6.40;100.00
48041;BME280;33815;48.386;11.738;2023-02-19T09:11:41;97028.66;;;6.26;100.00
48041;BME280;33815;48.386;11.738;2023-02-19T09:14:07;97035.16;;;6.43;100.00
48041;BME280;33815;48.386;11.738;2023-02-19T09:16:33;97033.47;;;6.55;100.00
48041;BME280;33815;48.386;11.738;2023-02-19T09:18:58;97023.91;;;6.56;100.00
48041;BME280;33815;48.386;11.738;2023-02-19T09:21:24;97019.66;;;6.55;100.00
48041;BME280;33815;48.386;11.738;2023-02-19T09:23:49;97032.28;;;6.59;100.00
48041;BME280;33815;48.386;11.738;2023-02-19T09:26:14;97048.09;;;6.79;100.00
48041;BME280;33815;48.386;11.738;2023-02-19T09:28:40;97030.94;;;7.00;100.00
48041;BME280;33815;48.386;11.738;2023-02-19T09:31:07;97033.03;;;7.18;100.00
48041;BME280;33815;48.386;11.738;2023-02-19T09:33:33;97027.84;;;7.29;100.00
48041;BME280;33815;48.386;11.738;2023-02-19T09:35:58;97051.91;;;7.31;100.00
48041;BME280;33815;48.386;11.738;2023-02-19T09:38:25;97049.06;;;7.46;100.00
48041;BME280;33815;48.386;11.738;2023-02-19T09:40:50;97040.56;;;7.66;100.00
48041;BME280;33815;48.386;11.738;2023-02-19T09:43:19;97036.91;;;7.69;100.00
48041;BME280;33815;48.386;11.738;2023-02-19T09:45:45;97036.91;;;7.69;100.00
48041;BME280;33815;48.386;11.738;2023-02-19T09:48:11;97031.44;;;7.83;100.00
48041;BME280;33815;48.386;11.738;2023-02-19T09:50:40;97058.06;;;8.08;100.00
48041;BME280;33815;48.386;11.738;2023-02-19T09:53:22;97058.28;;;8.49;100.00
48041;BME280;33815;48.386;11.738;2023-02-19T09:55:50;97062.97;;;8.55;100.00
48041;BME280;33815;48.386;11.738;2023-02-19T10:00:48;97069.94;;;9.18;100.00
48041;BME280;33815;48.386;11.738;2023-02-19T10:03:27;97047.28;;;9.08;100.00
48041;BME280;33815;48.386;11.738;2023-02-19T10:06:21;97048.63;;;9.03;100.00
48041;BME280;33815;48.386;11.738;2023-02-19T10:08:49;97054.78;;;9.33;100.00
48041;BME280;33815;48.386;11.738;2023-02-19T10:11:15;97053.53;;;9.27;100.00
48041;BME280;33815;48.386;11.738;2023-02-19T10:13:51;97073.47;;;9.17;100.00
48041;BME280;33815;48.386;11.738;2023-02-19T10:16:23;97072.78;;;9.15;100.00
48041;BME280;33815;48.386;11.738;2023-02-19T10:18:51;97063.91;;;9.58;100.00
48041;BME280;33815;48.386;11.738;2023-02-19T10:21:18;97074.75;;;10.23;100.00
48041;BME280;33815;48.386;11.738;2023-02-19T10:23:46;97062.31;;;10.47;93.44
48041;BME280;33815;48.386;11.738;2023-02-19T10:26:13;97068.47;;;10.75;90.40
48041;BME280;33815;48.386;11.738;2023-02-19T10:28:38;97087.00;;;10.62;87.45
48041;BME280;33815;48.386;11.738;2023-02-19T10:31:10;97074.47;;;10.17;86.99
48041;BME280;33815;48.386;11.738;2023-02-19T10:34:00;97081.03;;;10.21;88.50
48041;BME280;33815;48.386;11.738;2023-02-19T10:36:32;97078.56;;;10.00;85.18
48041;BME280;33815;48.386;11.738;2023-02-19T10:39:28;97082.38;;;9.95;86.35
48041;BME280;33815;48.386;11.738;2023-02-19T10:41:49;97080.28;;;10.50;83.83
48041;BME280;33815;48.386;11.738;2023-02-19T10:44:20;97074.94;;;10.61;83.49
48041;BME280;33815;48.386;11.738;2023-02-19T10:46:48;97063.28;;;10.36;82.71
48041;BME280;33815;48.386;11.738;2023-02-19T10:49:31;97078.34;;;10.52;84.44
48041;BME280;33815;48.386;11.738;2023-02-19T10:51:59;97091.81;;;10.57;84.00
48041;BME280;33815;48.386;11.738;2023-02-19T10:54:28;97098.66;;;10.38;80.83
48041;BME280;33815;48.386;11.738;2023-02-19T10:59:57;97077.50;;;10.32;80.97
48041;BME280;33815;48.386;11.738;2023-02-19T11:02:23;97066.78;;;10.05;82.33
48041;BME280;33815;48.386;11.738;2023-02-19T11:07:34;97073.66;;;10.26;82.38
48041;BME280;33815;48.386;11.738;2023-02-19T11:10:02;97048.38;;;9.97;77.61
48041;BME280;33815;48.386;11.738;2023-02-19T11:12:33;97041.00;;;10.02;78.03
48041;BME280;33815;48.386;11.738;2023-02-19T11:15:21;97056.41;;;10.44;78.58
48041;BME280;33815;48.386;11.738;2023-02-19T11:18:16;97070.09;;;10.95;77.93
48041;BME280;33815;48.386;11.738;2023-02-19T11:20:52;97083.13;;;10.95;75.15
48041;BME280;33815;48.386;11.738;2023-02-19T11:23:29;97075.72;;;10.71;75.70
48041;BME280;33815;48.386;11.738;2023-02-19T11:25:58;97090.72;;;10.59;77.09
48041;BME280;33815;48.386;11.738;2023-02-19T11:28:35;97083.63;;;11.09;77.68
48041;BME280;33815;48.386;11.738;2023-02-19T11:31:13;97085.13;;;11.21;75.30
48041;BME280;33815;48.386;11.738;2023-02-19T11:38:47;97107.44;;;10.57;77.41
48041;BME280;33815;48.386;11.738;2023-02-19T11:41:40;97098.72;;;10.07;80.70
48041;BME280;33815;48.386;11.738;2023-02-19T11:50:47;97097.88;;;8.30;93.76
48041;BME280;33815;48.386;11.738;2023-02-19T11:53:17;97074.53;;;8.18;98.37
48041;BME280;33815;48.386;11.738;2023-02-19T11:55:56;97091.69;;;8.42;95.65
48041;BME280;33815;48.386;11.738;2023-02-19T12:05:08;97081.53;;;9.14;89.00
48041;BME280;33815;48.386;11.738;2023-02-19T12:08:01;97071.81;;;9.47;88.61
48041;BME280;33815;48.386;11.738;2023-02-19T12:11:24;97093.81;;;9.64;86.97
48041;BME280;33815;48.386;11.738;2023-02-19T12:16:45;97088.00;;;10.01;84.98
48041;BME280;33815;48.386;11.738;2023-02-19T12:19:36;97081.69;;;9.84;83.85
48041;BME280;33815;48.386;11.738;2023-02-19T12:22:13;97097.28;;;9.74;82.92
48041;BME280;33815;48.386;11.738;2023-02-19T12:36:11;97096.06;;;9.88;78.44
48041;BME280;33815;48.386;11.738;2023-02-19T12:38:46;97093.91;;;10.03;75.94
48041;BME280;33815;48.386;11.738;2023-02-19T12:43:56;97104.38;;;10.32;74.79
48041;BME280;33815;48.386;11.738;2023-02-19T12:46:45;97095.50;;;10.54;74.49
48041;BME280;33815;48.386;11.738;2023-02-19T12:49:18;97112.50;;;10.58;73.62
48041;BME280;33815;48.386;11.738;2023-02-19T12:51:48;97106.72;;;10.74;72.88
48041;BME280;33815;48.386;11.738;2023-02-19T12:57:04;97103.19;;;10.66;73.29
48041;BME280;33815;48.386;11.738;2023-02-19T12:59:35;97127.19;;;10.69;72.05
48041;BME280;33815;48.386;11.738;2023-02-19T13:04:42;97120.97;;;10.31;72.37
48041;BME280;33815;48.386;11.738;2023-02-19T13:07:13;97110.41;;;10.33;72.85
48041;BME280;33815;48.386;11.738;2023-02-19T13:10:28;97108.81;;;10.41;73.81
48041;BME280;33815;48.386;11.738;2023-02-19T13:13:00;97098.88;;;10.16;73.83
48041;BME280;33815;48.386;11.738;2023-02-19T13:15:47;97113.34;;;9.99;75.80
48041;BME280;33815;48.386;11.738;2023-02-19T13:18:20;97099.19;;;9.82;75.78
48041;BME280;33815;48.386;11.738;2023-02-19T13:20:47;97104.06;;;9.96;76.39
48041;BME280;33815;48.386;11.738;2023-02-19T13:23:20;97104.69;;;9.88;78.25
48041;BME280;33815;48.386;11.738;2023-02-19T13:31:43;97105.53;;;9.89;78.98
48041;BME280;33815;48.386;11.738;2023-02-19T13:34:39;97091.53;;;9.90;79.28
48041;BME280;33815;48.386;11.738;2023-02-19T13:37:07;97095.81;;;9.91;80.02
48041;BME280;33815;48.386;11.738;2023-02-19T13:39:33;97098.78;;;9.76;79.86
48041;BME280;33815;48.386;11.738;2023-02-19T13:41:59;97101.63;;;9.73;79.70
48041;BME280;33815;48.386;11.738;2023-02-19T13:44:27;97123.16;;;9.75;79.08
48041;BME280;33815;48.386;11.738;2023-02-19T13:46:53;97108.94;;;9.80;78.33
48041;BME280;33815;48.386;11.738;2023-02-19T13:54:29;97095.25;;;9.97;75.72
48041;BME280;33815;48.386;11.738;2023-02-19T13:59:49;97100.13;;;10.21;72.71
48041;BME280;33815;48.386;11.738;2023-02-19T14:14:40;97091.31;;;10.22;69.68
48041;BME280;33815;48.386;11.738;2023-02-19T14:33:16;97112.13;;;10.03;67.56
48041;BME280;33815;48.386;11.738;2023-02-19T14:35:47;97106.19;;;9.81;67.73
48041;BME280;33815;48.386;11.738;2023-02-19T14:38:22;97111.41;;;9.81;67.83
48041;BME280;33815;48.386;11.738;2023-02-19T14:40:49;97109.16;;;9.67;68.80
48041;BME280;33815;48.386;11.738;2023-02-19T14:43:18;97121.16;;;9.58;69.19
48041;BME280;33815;48.386;11.738;2023-02-19T14:46:00;97136.41;;;9.63;68.57
48041;BME280;33815;48.386;11.738;2023-02-19T14:48:37;97119.50;;;9.47;69.05
48041;BME280;33815;48.386;11.738;2023-02-19T14:51:12;97147.13;;;9.38;69.62
48041;BME280;33815;48.386;11.738;2023-02-19T14:53:42;97160.00;;;9.19;70.54
48041;BME280;33815;48.386;11.738;2023-02-19T14:56:31;97178.13;;;8.88;77.81
48041;BME280;33815;48.386;11.738;2023-02-19T15:01:38;97177.00;;;7.69;95.91